Time;durP1;ratioP1;P1;durP2;ratioP2;P2;SDS_P1;SDS_P2;PMS_P1;PMS_P2;Temp;Humidity;BMP_temperature;BMP_pressure;BME280_temperature;BME280_humidity;BME280_pressure;Samples;Min_cycle;Max_cycle;Signal;HPM_P1;HPM_P2
2023/08/31 00:00:29;;;;;;;;;;;;;;;21.08;54.33;100697.88;5063872;28;19956;-46
2023/08/31 00:02:54;;;;;;;;;;;;;;;21.08;54.40;100697.03;5063496;28;19923;-45
2023/08/31 00:05:20;;;;;;;;;;;;;;;21.07;54.15;100695.34;5062430;28;19943;-44
2023/08/31 00:07:46;;;;;;;;;;;;;;;21.07;54.36;100689.94;5063900;28;19924;-44
2023/08/31 00:10:11;;;;;;;;;;;;;;;21.05;54.18;100690.13;5061494;28;19986;-44
2023/08/31 00:12:37;;;;;;;;;;;;;;;21.05;54.26;100689.28;5063653;28;19939;-46
2023/08/31 00:15:04;;;;;;;;;;;;;;;21.04;54.49;100682.22;5063308;28;19913;-44
2023/08/31 00:17:29;;;;;;;;;;;;;;;21.04;54.53;100687.63;5061094;28;19956;-44
2023/08/31 00:19:55;;;;;;;;;;;;;;;21.04;54.47;100690.31;5062569;28;19947;-44
2023/08/31 00:22:20;;;;;;;;;;;;;;;21.02;54.16;100689.66;5063209;28;19935;-44
2023/08/31 00:24:45;;;;;;;;;;;;;;;21.01;54.47;100683.41;5063399;28;19913;-45
2023/08/31 00:27:12;;;;;;;;;;;;;;;21.01;54.20;100680.72;5063321;28;19916;-45
2023/08/31 00:29:38;;;;;;;;;;;;;;;20.99;54.05;100680.06;5063688;28;19999;-47
2023/08/31 00:32:04;;;;;;;;;;;;;;;21.00;54.47;100686.31;5063305;28;20088;-45
2023/08/31 00:34:29;;;;;;;;;;;;;;;20.97;54.08;100693.75;5062519;28;19913;-44
2023/08/31 00:36:54;;;;;;;;;;;;;;;20.96;54.37;100683.97;5063563;28;19913;-47
2023/08/31 00:39:20;;;;;;;;;;;;;;;20.97;54.24;100685.66;5063249;28;19927;-45
2023/08/31 00:41:46;;;;;;;;;;;;;;;20.96;54.00;100685.84;5060740;28;19913;-45
2023/08/31 00:44:11;;;;;;;;;;;;;;;20.96;54.05;100685.84;5063467;28;19928;-45
2023/08/31 00:46:37;;;;;;;;;;;;;;;20.96;54.10;100691.25;5063521;28;19913;-44
2023/08/31 00:49:03;;;;;;;;;;;;;;;20.94;54.43;100686.06;5061418;28;19916;-44
2023/08/31 00:51:29;;;;;;;;;;;;;;;20.95;54.39;100689.59;5061491;28;20008;-44
2023/08/31 00:53:55;;;;;;;;;;;;;;;20.93;54.31;100689.75;5061841;28;19982;-48
2023/08/31 00:56:20;;;;;;;;;;;;;;;20.93;54.17;100695.16;5063187;28;19923;-47
2023/08/31 00:58:46;;;;;;;;;;;;;;;20.92;54.35;100698.06;5063270;28;19921;-48
2023/08/31 01:01:14;;;;;;;;;;;;;;;20.91;54.40;100693.69;5060808;28;20019;-49
2023/08/31 01:03:51;;;;;;;;;;;;;;;20.91;54.36;100699.09;5061836;28;19967;-47
2023/08/31 01:06:35;;;;;;;;;;;;;;;20.91;54.10;100699.09;5044256;28;19919;-45
2023/08/31 01:09:10;;;;;;;;;;;;;;;20.89;54.33;100704.66;5062560;28;19919;-46
2023/08/31 01:11:43;;;;;;;;;;;;;;;20.88;54.08;100708.41;5061646;28;19917;-45
2023/08/31 01:14:13;;;;;;;;;;;;;;;20.89;53.98;100701.13;5075605;28;19917;-45
2023/08/31 01:16:38;;;;;;;;;;;;;;;20.87;54.33;100698.63;5062243;28;19976;-47
2023/08/31 01:19:04;;;;;;;;;;;;;;;20.86;54.16;100694.25;5061012;28;20366;-46
2023/08/31 01:21:37;;;;;;;;;;;;;;;20.86;54.22;100694.25;5077886;28;20393;-45
2023/08/31 01:24:02;;;;;;;;;;;;;;;20.86;54.25;100704.22;5062613;28;20471;-46
2023/08/31 01:26:28;;;;;;;;;;;;;;;20.85;54.23;100711.47;5063122;28;19913;-46
2023/08/31 01:28:54;;;;;;;;;;;;;;;20.85;54.08;100732.25;5065467;28;19917;-45
2023/08/31 01:31:20;;;;;;;;;;;;;;;20.85;54.30;100734.94;5066396;28;20310;-46
2023/08/31 01:33:45;;;;;;;;;;;;;;;20.84;53.93;100734.13;5066523;28;19923;-48
2023/08/31 01:36:12;;;;;;;;;;;;;;;20.84;53.96;100730.56;5065771;28;20509;-46
2023/08/31 01:38:38;;;;;;;;;;;;;;;20.84;54.03;100725.16;5064781;28;20251;-45
2023/08/31 01:41:05;;;;;;;;;;;;;;;20.83;54.27;100716.22;5066041;28;19916;-45
2023/08/31 01:43:31;;;;;;;;;;;;;;;20.83;54.10;100710.00;5065252;28;19939;-45
2023/08/31 01:45:56;;;;;;;;;;;;;;;20.82;54.22;100711.03;5065142;28;19913;-45
2023/08/31 01:48:21;;;;;;;;;;;;;;;20.82;54.04;100716.44;5066164;28;19912;-47
2023/08/31 01:50:47;;;;;;;;;;;;;;;20.80;53.97;100707.66;5065979;28;20007;-45
2023/08/31 01:53:12;;;;;;;;;;;;;;;20.80;54.29;100699.53;5065842;28;19921;-48
2023/08/31 01:55:38;;;;;;;;;;;;;;;20.80;54.15;100699.53;5066219;28;19913;-48
2023/08/31 01:58:03;;;;;;;;;;;;;;;20.79;54.30;100695.19;5066565;28;19912;-45
2023/08/31 02:00:29;;;;;;;;;;;;;;;20.79;54.11;100692.47;5065896;28;19917;-46
2023/08/31 02:02:54;;;;;;;;;;;;;;;20.79;54.26;100697.88;5066120;28;19913;-48
2023/08/31 02:05:19;;;;;;;;;;;;;;;20.77;54.36;100700.75;5065430;28;20316;-46
2023/08/31 02:07:44;;;;;;;;;;;;;;;20.78;54.02;100704.31;5065646;28;19944;-45
2023/08/31 02:10:09;;;;;;;;;;;;;;;20.77;54.13;100695.34;5065820;28;19963;-45
2023/08/31 02:12:36;;;;;;;;;;;;;;;20.76;54.17;100688.28;5066000;28;20322;-46
2023/08/31 02:15:03;;;;;;;;;;;;;;;20.77;54.00;100702.63;5065308;28;20445;-49
2023/08/31 02:17:28;;;;;;;;;;;;;;;20.74;53.95;100706.53;5064264;28;19975;-46
2023/08/31 02:19:53;;;;;;;;;;;;;;;20.74;54.25;100695.75;5065351;28;19924;-45
2023/08/31 02:22:19;;;;;;;;;;;;;;;20.74;54.25;100700.31;5065525;28;19924;-45
2023/08/31 02:24:44;;;;;;;;;;;;;;;20.73;54.21;100702.16;5065179;28;19920;-46
2023/08/31 02:27:09;;;;;;;;;;;;;;;20.73;54.25;100704.88;5065821;28;19916;-48
2023/08/31 02:29:34;;;;;;;;;;;;;;;20.72;54.15;100712.13;5065602;28;19916;-45
2023/08/31 02:32:00;;;;;;;;;;;;;;;20.72;54.04;100701.31;5065183;28;20304;-46
2023/08/31 02:34:25;;;;;;;;;;;;;;;20.71;54.29;100706.91;5064522;28;19953;-46
2023/08/31 02:36:50;;;;;;;;;;;;;;;20.72;54.00;100703.16;5065779;28;19913;-46
2023/08/31 02:39:16;;;;;;;;;;;;;;;20.71;53.95;100704.19;5065428;28;20007;-46
2023/08/31 02:41:41;;;;;;;;;;;;;;;20.70;54.16;100697.13;5064902;28;19917;-45
2023/08/31 02:44:06;;;;;;;;;;;;;;;20.68;54.36;100689.19;5064961;28;19917;-46
2023/08/31 02:46:31;;;;;;;;;;;;;;;20.69;54.16;100687.34;5065445;28;19912;-44
2023/08/31 02:48:57;;;;;;;;;;;;;;;20.68;54.04;100688.34;5065123;28;19979;-44
2023/08/31 02:51:22;;;;;;;;;;;;;;;20.66;54.18;100675.03;5065283;28;20286;-44
2023/08/31 02:53:47;;;;;;;;;;;;;;;20.66;53.88;100675.03;5064716;28;20381;-44
2023/08/31 02:56:12;;;;;;;;;;;;;;;20.65;53.91;100678.78;5065553;28;19917;-45
2023/08/31 02:58:38;;;;;;;;;;;;;;;20.64;54.21;100677.06;5065217;28;20441;-46
2023/08/31 03:01:12;;;;;;;;;;;;;;;20.64;54.06;100673.53;5065020;28;19913;-45
2023/08/31 03:03:38;;;;;;;;;;;;;;;20.64;53.88;100678.94;5064584;28;19923;-47
2023/08/31 03:06:03;;;;;;;;;;;;;;;20.62;54.02;100678.31;5063546;28;19948;-44
2023/08/31 03:08:28;;;;;;;;;;;;;;;20.62;53.98;100684.53;5064971;28;19926;-45
2023/08/31 03:10:55;;;;;;;;;;;;;;;20.61;54.00;100677.47;5067053;28;19917;-49
2023/08/31 03:13:20;;;;;;;;;;;;;;;20.61;53.92;100680.16;5064666;28;19913;-47
2023/08/31 03:15:45;;;;;;;;;;;;;;;20.60;54.13;100680.34;5062199;28;19963;-47
2023/08/31 03:18:10;;;;;;;;;;;;;;;20.61;54.18;100679.34;5064353;28;20007;-44
2023/08/31 03:20:35;;;;;;;;;;;;;;;20.59;53.88;100684.91;5063965;28;19976;-46
2023/08/31 03:23:01;;;;;;;;;;;;;;;20.59;54.21;100682.19;5064235;28;19953;-44
2023/08/31 03:25:27;;;;;;;;;;;;;;;20.58;54.32;100683.25;5064325;28;20012;-46
2023/08/31 03:27:52;;;;;;;;;;;;;;;20.57;53.94;100673.47;5064552;28;19960;-45
2023/08/31 03:30:17;;;;;;;;;;;;;;;20.57;54.07;100683.44;5064432;28;20369;-44
2023/08/31 03:32:42;;;;;;;;;;;;;;;20.57;53.90;100686.13;5064556;28;19913;-45
2023/08/31 03:35:08;;;;;;;;;;;;;;;20.56;54.29;100679.91;5063286;28;20004;-45
2023/08/31 03:37:33;;;;;;;;;;;;;;;20.56;53.99;100679.03;5064446;28;19912;-45
2023/08/31 03:39:58;;;;;;;;;;;;;;;20.55;54.17;100675.50;5064424;28;20064;-44
2023/08/31 03:42:24;;;;;;;;;;;;;;;20.54;53.93;100679.22;5063700;28;19974;-44
2023/08/31 03:44:49;;;;;;;;;;;;;;;20.54;53.90;100673.81;5064084;28;19916;-44
2023/08/31 03:47:14;;;;;;;;;;;;;;;20.53;53.90;100680.25;5064307;28;19916;-46
2023/08/31 03:49:39;;;;;;;;;;;;;;;20.53;53.91;100687.53;5063820;28;19917;-46
2023/08/31 03:52:04;;;;;;;;;;;;;;;20.52;54.26;100681.28;5063155;28;19921;-44
2023/08/31 03:54:30;;;;;;;;;;;;;;;20.52;54.20;100677.72;5064220;28;20312;-47
2023/08/31 03:56:55;;;;;;;;;;;;;;;20.51;54.20;100679.59;5063971;28;19971;-46
2023/08/31 03:59:20;;;;;;;;;;;;;;;20.51;54.22;100676.88;5063760;28;19913;-46
2023/08/31 04:01:46;;;;;;;;;;;;;;;20.51;54.18;100676.06;5061655;28;19931;-46
2023/08/31 04:04:11;;;;;;;;;;;;;;;20.50;53.95;100680.63;5062830;28;19916;-48
2023/08/31 04:06:36;;;;;;;;;;;;;;;20.50;54.40;100680.63;5062412;28;19939;-47
2023/08/31 04:09:02;;;;;;;;;;;;;;;20.50;54.51;100688.72;5062543;28;19913;-48
2023/08/31 04:11:28;;;;;;;;;;;;;;;20.51;54.28;100694.97;5063749;28;19984;-44
2023/08/31 04:13:53;;;;;;;;;;;;;;;20.51;54.72;100697.66;5062916;28;20384;-45
2023/08/31 04:16:18;;;;;;;;;;;;;;;20.51;54.85;100703.91;5063524;28;19935;-46
2023/08/31 04:18:45;;;;;;;;;;;;;;;20.51;54.57;100708.47;5063204;28;19912;-47
2023/08/31 04:21:10;;;;;;;;;;;;;;;20.51;54.69;100708.47;5063079;28;19965;-46
2023/08/31 04:23:35;;;;;;;;;;;;;;;20.51;54.71;100712.00;5063092;28;19912;-45
2023/08/31 04:26:03;;;;;;;;;;;;;;;20.51;54.83;100714.69;5061992;28;19918;-46
2023/08/31 04:28:28;;;;;;;;;;;;;;;20.52;54.91;100723.63;5061529;28;19970;-47
2023/08/31 04:30:54;;;;;;;;;;;;;;;20.51;54.76;100717.41;5063475;28;19912;-44
2023/08/31 04:33:19;;;;;;;;;;;;;;;20.51;55.16;100709.28;5063491;28;19917;-45
2023/08/31 04:35:44;;;;;;;;;;;;;;;20.52;54.92;100721.81;5061928;28;19920;-46
2023/08/31 04:38:09;;;;;;;;;;;;;;;20.52;55.20;100720.94;5063678;28;19919;-48
2023/08/31 04:40:36;;;;;;;;;;;;;;;20.52;55.17;100724.50;5061840;28;19920;-48
2023/08/31 04:43:01;;;;;;;;;;;;;;;20.52;55.31;100723.63;5063422;28;19913;-49
2023/08/31 04:45:26;;;;;;;;;;;;;;;20.51;55.21;100725.50;5061564;28;19921;-45
2023/08/31 04:47:52;;;;;;;;;;;;;;;20.51;55.29;100722.81;5063500;28;19975;-46
2023/08/31 04:50:17;;;;;;;;;;;;;;;20.52;55.46;100726.34;5063197;28;19913;-46
2023/08/31 04:52:42;;;;;;;;;;;;;;;20.51;55.24;100720.09;5062366;28;19921;-49
2023/08/31 04:55:08;;;;;;;;;;;;;;;20.50;55.49;100718.44;5062593;28;19913;-45
2023/08/31 04:57:33;;;;;;;;;;;;;;;20.50;55.65;100721.13;5063129;28;19944;-46
2023/08/31 04:59:58;;;;;;;;;;;;;;;20.51;55.47;100724.66;5063144;28;19924;-50
2023/08/31 05:02:23;;;;;;;;;;;;;;;20.51;55.59;100721.97;5060117;28;20053;-46
2023/08/31 05:04:49;;;;;;;;;;;;;;;20.51;55.69;100727.38;5065282;28;20494;-44
2023/08/31 05:07:14;;;;;;;;;;;;;;;20.50;55.33;100723.00;5062650;28;19927;-47
2023/08/31 05:09:39;;;;;;;;;;;;;;;20.50;55.63;100726.53;5063858;28;19913;-51
2023/08/31 05:12:04;;;;;;;;;;;;;;;20.50;55.77;100726.53;5061699;28;19917;-45
2023/08/31 05:14:30;;;;;;;;;;;;;;;20.50;55.78;100734.63;5064869;28;19913;-44
2023/08/31 05:16:55;;;;;;;;;;;;;;;20.49;55.79;100740.22;5066651;28;19921;-49
2023/08/31 05:19:20;;;;;;;;;;;;;;;20.49;55.66;100742.94;5065946;28;19912;-44
2023/08/31 05:21:46;;;;;;;;;;;;;;;20.47;55.61;100746.63;5066301;28;19928;-45
2023/08/31 05:24:11;;;;;;;;;;;;;;;20.47;55.61;100743.94;5066187;28;19917;-45
2023/08/31 05:26:36;;;;;;;;;;;;;;;20.47;55.48;100745.75;5066100;28;19944;-48
2023/08/31 05:29:03;;;;;;;;;;;;;;;20.46;55.10;100744.09;5066512;28;19967;-45
2023/08/31 05:31:29;;;;;;;;;;;;;;;20.46;55.30;100754.91;5066000;28;19913;-46
2023/08/31 05:33:54;;;;;;;;;;;;;;;20.45;55.24;100750.53;5066442;28;19913;-50
2023/08/31 05:36:19;;;;;;;;;;;;;;;20.44;55.37;100755.09;5065520;28;19917;-47
2023/08/31 05:38:44;;;;;;;;;;;;;;;20.44;55.17;100763.19;5064701;28;20385;-45
2023/08/31 05:41:09;;;;;;;;;;;;;;;20.43;55.22;100764.22;5065743;28;19996;-49
2023/08/31 05:43:40;;;;;;;;;;;;;;;20.42;55.36;100757.13;5066211;28;19976;-46
2023/08/31 05:46:07;;;;;;;;;;;;;;;20.43;55.38;100763.34;5065879;28;19966;-47
2023/08/31 05:48:32;;;;;;;;;;;;;;;20.42;55.05;100762.50;5066109;28;19924;-50
2023/08/31 05:50:57;;;;;;;;;;;;;;;20.43;55.00;100776.84;5065734;28;19917;-45
2023/08/31 05:53:23;;;;;;;;;;;;;;;20.43;55.14;100774.16;5065708;28;19913;-44
2023/08/31 05:55:48;;;;;;;;;;;;;;;20.41;54.94;100774.34;5065606;28;19919;-46
2023/08/31 05:58:13;;;;;;;;;;;;;;;20.41;55.21;100771.66;5065963;28;19923;-47
2023/08/31 06:00:38;;;;;;;;;;;;;;;20.41;55.01;100774.34;5066157;28;20071;-47
2023/08/31 06:03:05;;;;;;;;;;;;;;;20.41;55.18;100777.03;5065623;28;20436;-46
2023/08/31 06:05:31;;;;;;;;;;;;;;;20.41;54.99;100777.03;5064734;28;20259;-44
2023/08/31 06:07:56;;;;;;;;;;;;;;;20.40;55.07;100778.06;5063137;28;19939;-44
2023/08/31 06:10:23;;;;;;;;;;;;;;;20.40;54.97;100783.47;5066363;28;19943;-45
2023/08/31 06:12:48;;;;;;;;;;;;;;;20.41;54.81;100789.72;5065893;28;19919;-46
2023/08/31 06:15:14;;;;;;;;;;;;;;;20.39;54.77;100787.22;5064766;28;19913;-45
2023/08/31 06:17:41;;;;;;;;;;;;;;;20.38;55.03;100793.59;5065475;28;19924;-46
2023/08/31 06:20:08;;;;;;;;;;;;;;;20.39;54.95;100795.31;5065304;28;19970;-44
2023/08/31 06:22:33;;;;;;;;;;;;;;;20.39;54.86;100794.44;5065638;28;19944;-46
2023/08/31 06:24:58;;;;;;;;;;;;;;;20.39;54.88;100802.53;5047095;28;19924;-46
2023/08/31 06:27:23;;;;;;;;;;;;;;;20.39;54.86;100798.00;5065625;28;19949;-44
2023/08/31 06:29:48;;;;;;;;;;;;;;;20.39;55.00;100808.81;5065440;28;20518;-46
2023/08/31 06:32:14;;;;;;;;;;;;;;;20.39;54.84;100813.34;5065078;28;19917;-45
2023/08/31 06:34:39;;;;;;;;;;;;;;;20.39;54.95;100813.34;5064252;28;19984;-45
2023/08/31 06:37:05;;;;;;;;;;;;;;;20.39;54.90;100816.91;5064028;28;19913;-44
2023/08/31 06:39:30;;;;;;;;;;;;;;;20.39;54.73;100814.22;5065164;28;20285;-46
2023/08/31 06:41:55;;;;;;;;;;;;;;;20.39;54.67;100819.63;5065102;28;19917;-45
2023/08/31 06:44:20;;;;;;;;;;;;;;;20.39;54.80;100819.63;5065026;28;19935;-47
2023/08/31 06:46:45;;;;;;;;;;;;;;;20.39;54.64;100824.16;5064225;28;19920;-45
2023/08/31 06:49:11;;;;;;;;;;;;;;;20.39;54.88;100825.00;5064150;28;19916;-45
2023/08/31 06:51:37;;;;;;;;;;;;;;;20.39;54.64;100840.34;5064140;28;19918;-45
2023/08/31 06:54:06;;;;;;;;;;;;;;;20.40;54.86;100829.38;5064894;28;19920;-45
2023/08/31 06:56:34;;;;;;;;;;;;;;;20.39;54.88;100835.81;5062442;28;19917;-45
2023/08/31 06:58:59;;;;;;;;;;;;;;;20.39;54.79;100826.84;5065087;28;19917;-44
2023/08/31 07:01:25;;;;;;;;;;;;;;;20.39;54.62;100832.25;5064142;28;19976;-47
2023/08/31 07:03:50;;;;;;;;;;;;;;;20.39;54.82;100838.50;5064464;28;19956;-46
2023/08/31 07:06:15;;;;;;;;;;;;;;;20.40;54.82;100850.16;5063122;28;20006;-44
2023/08/31 07:08:41;;;;;;;;;;;;;;;20.39;54.52;100843.03;5064160;28;20381;-48
2023/08/31 07:11:07;;;;;;;;;;;;;;;20.39;54.96;100843.91;5064487;28;19917;-45
2023/08/31 07:13:32;;;;;;;;;;;;;;;20.40;54.53;100848.28;5064170;28;19963;-46
2023/08/31 07:15:57;;;;;;;;;;;;;;;20.40;54.74;100839.34;5064052;28;19943;-46
2023/08/31 07:18:22;;;;;;;;;;;;;;;20.41;54.81;100835.63;5064574;28;19912;-46
2023/08/31 07:20:47;;;;;;;;;;;;;;;20.40;54.71;100842.88;5063635;28;19951;-45
2023/08/31 07:23:13;;;;;;;;;;;;;;;20.40;54.71;100845.59;5064359;28;19917;-46
2023/08/31 07:25:38;;;;;;;;;;;;;;;20.40;54.92;100848.28;5063082;28;19919;-45
2023/08/31 07:28:03;;;;;;;;;;;;;;;20.42;54.69;100848.09;5064130;28;19913;-45
2023/08/31 07:30:30;;;;;;;;;;;;;;;20.42;54.74;100850.78;5064515;28;19924;-45
2023/08/31 07:32:55;;;;;;;;;;;;;;;20.41;54.92;100852.66;5063674;28;20086;-47
2023/08/31 07:35:20;;;;;;;;;;;;;;;20.42;54.98;100861.59;5063477;28;19913;-44
2023/08/31 07:37:45;;;;;;;;;;;;;;;20.41;54.71;100860.75;5062589;28;19929;-45
2023/08/31 07:40:11;;;;;;;;;;;;;;;20.42;54.88;100853.50;5063855;28;19943;-45
2023/08/31 07:42:36;;;;;;;;;;;;;;;20.42;54.80;100859.72;5063662;28;20214;-45
2023/08/31 07:45:01;;;;;;;;;;;;;;;20.42;54.99;100857.03;5063614;28;19916;-45
2023/08/31 07:47:26;;;;;;;;;;;;;;;20.43;55.01;100857.88;5063336;28;19913;-45
2023/08/31 07:49:52;;;;;;;;;;;;;;;20.42;54.93;100853.50;5063460;28;20400;-46
2023/08/31 07:52:17;;;;;;;;;;;;;;;20.42;54.96;100854.34;5063833;28;19988;-51
2023/08/31 07:54:42;;;;;;;;;;;;;;;20.42;54.99;100859.72;5063773;28;20288;-45
2023/08/31 07:57:07;;;;;;;;;;;;;;;20.43;54.93;100863.28;5063419;28;19928;-45
2023/08/31 07:59:33;;;;;;;;;;;;;;;20.43;55.14;100869.53;5063859;28;19913;-46
2023/08/31 08:01:58;;;;;;;;;;;;;;;20.44;55.18;100870.38;5062734;28;19924;-45
2023/08/31 08:04:24;;;;;;;;;;;;;;;20.44;55.00;100875.78;5059911;28;19917;-45
2023/08/31 08:06:50;;;;;;;;;;;;;;;20.44;55.03;100876.63;5063573;28;19913;-47
2023/08/31 08:09:15;;;;;;;;;;;;;;;20.44;55.11;100873.06;5063062;28;19921;-50
2023/08/31 08:11:42;;;;;;;;;;;;;;;20.44;54.92;100876.63;5063137;28;19917;-49
2023/08/31 08:14:07;;;;;;;;;;;;;;;20.45;55.12;100874.75;5063356;28;19913;-45
2023/08/31 08:16:32;;;;;;;;;;;;;;;20.46;55.08;100884.53;5063076;28;20024;-45
2023/08/31 08:18:58;;;;;;;;;;;;;;;20.44;54.90;100884.72;5063348;28;19917;-46
2023/08/31 08:21:23;;;;;;;;;;;;;;;20.46;54.90;100882.66;5058754;28;19924;-47
2023/08/31 08:23:50;;;;;;;;;;;;;;;20.47;54.97;100886.19;5061019;28;20285;-47
2023/08/31 08:26:15;;;;;;;;;;;;;;;20.47;54.79;100886.19;5062465;28;19970;-47
2023/08/31 08:28:41;;;;;;;;;;;;;;;20.47;54.91;100883.50;5061715;28;19970;-48
2023/08/31 08:31:07;;;;;;;;;;;;;;;20.48;55.06;100890.63;5061959;28;20012;-44
2023/08/31 08:33:32;;;;;;;;;;;;;;;20.48;54.75;100901.44;5061431;28;19921;-46
2023/08/31 08:35:57;;;;;;;;;;;;;;;20.48;54.80;100912.25;5061281;28;19916;-48
2023/08/31 08:38:23;;;;;;;;;;;;;;;20.49;55.23;100910.38;5064939;28;19921;-50
2023/08/31 08:40:48;;;;;;;;;;;;;;;20.49;54.86;100903.13;5065798;28;19992;-49
2023/08/31 08:43:13;;;;;;;;;;;;;;;20.49;55.08;100904.97;5066062;28;19920;-50
2023/08/31 08:45:41;;;;;;;;;;;;;;;20.51;55.22;100905.63;5079224;28;19917;-48
2023/08/31 08:48:07;;;;;;;;;;;;;;;20.51;55.31;100911.88;5065862;28;19921;-49
2023/08/31 08:50:33;;;;;;;;;;;;;;;20.51;54.95;100911.88;5063842;28;19921;-47
2023/08/31 08:52:59;;;;;;;;;;;;;;;20.53;55.14;100914.41;5065036;28;19960;-48
2023/08/31 08:55:24;;;;;;;;;;;;;;;20.53;55.29;100907.13;5079639;28;19920;-48
2023/08/31 08:57:49;;;;;;;;;;;;;;;20.54;55.30;100913.38;5064439;28;19959;-50
2023/08/31 09:00:15;;;;;;;;;;;;;;;20.55;55.46;100910.47;5065387;28;20035;-45
2023/08/31 09:02:41;;;;;;;;;;;;;;;20.56;55.50;100912.19;5066822;28;19916;-48
2023/08/31 09:05:06;;;;;;;;;;;;;;;20.57;55.56;100916.56;5064565;28;19921;-45
2023/08/31 09:07:34;;;;;;;;;;;;;;;20.59;55.53;100913.69;5066406;28;19917;-45
2023/08/31 09:09:59;;;;;;;;;;;;;;;20.59;55.37;100917.22;5065573;28;19995;-46
2023/08/31 09:12:24;;;;;;;;;;;;;;;20.60;55.53;100916.22;5066472;28;19916;-47
2023/08/31 09:15:00;;;;;;;;;;;;;;;20.60;55.47;100915.34;5066777;28;19935;-47
2023/08/31 09:17:26;;;;;;;;;;;;;;;20.61;55.44;100925.16;5047268;28;20317;-46
2023/08/31 09:20:01;;;;;;;;;;;;;;;20.60;55.47;100918.06;5066585;28;20393;-48
2023/08/31 09:22:26;;;;;;;;;;;;;;;20.61;55.71;100917.06;5066502;28;20332;-49
2023/08/31 09:24:52;;;;;;;;;;;;;;;20.61;55.47;100925.16;5066713;28;20011;-46
2023/08/31 09:27:17;;;;;;;;;;;;;;;20.61;55.70;100919.75;5066147;28;19923;-47
2023/08/31 09:29:46;;;;;;;;;;;;;;;20.61;55.60;100926.00;5048460;28;19912;-48
2023/08/31 09:32:15;;;;;;;;;;;;;;;20.62;55.52;100921.44;5064922;28;20167;-47
2023/08/31 09:34:40;;;;;;;;;;;;;;;20.62;55.69;100927.66;5064499;28;19921;-50
2023/08/31 09:37:08;;;;;;;;;;;;;;;20.62;55.81;100927.66;5065860;28;20422;-48
2023/08/31 09:39:37;;;;;;;;;;;;;;;20.63;55.50;100934.75;5065232;28;19913;-47
2023/08/31 09:42:03;;;;;;;;;;;;;;;20.64;55.71;100943.69;5066054;28;19923;-51
2023/08/31 09:44:28;;;;;;;;;;;;;;;20.63;55.81;100944.72;5066235;28;19912;-49
2023/08/31 09:46:53;;;;;;;;;;;;;;;20.64;55.73;100943.69;5065764;28;20163;-51
2023/08/31 09:49:19;;;;;;;;;;;;;;;20.63;55.78;100952.81;5081141;28;19987;-50
2023/08/31 09:51:44;;;;;;;;;;;;;;;20.64;55.87;100957.19;5064331;28;19940;-46
2023/08/31 09:54:11;;;;;;;;;;;;;;;20.64;55.63;100954.50;5065860;28;19956;-45
2023/08/31 09:56:36;;;;;;;;;;;;;;;20.64;55.64;100954.50;5081188;28;19924;-44
2023/08/31 09:59:02;;;;;;;;;;;;;;;20.63;55.68;100952.81;5065683;28;19913;-48
2023/08/31 10:01:27;;;;;;;;;;;;;;;20.64;55.95;100958.03;5064101;28;19932;-48
2023/08/31 10:03:53;;;;;;;;;;;;;;;20.64;55.81;100954.50;5063781;28;20012;-50
2023/08/31 10:06:18;;;;;;;;;;;;;;;20.64;55.87;100959.91;5064671;28;19941;-47
2023/08/31 10:08:43;;;;;;;;;;;;;;;20.64;55.66;100952.63;5047698;28;19966;-51
2023/08/31 10:11:12;;;;;;;;;;;;;;;20.65;55.89;100961.59;5064443;28;19939;-50
2023/08/31 10:13:40;;;;;;;;;;;;;;;20.64;55.83;100966.13;5064504;28;19912;-49
2023/08/31 10:16:05;;;;;;;;;;;;;;;20.65;55.82;100965.13;5064043;28;19913;-48
2023/08/31 10:18:30;;;;;;;;;;;;;;;20.65;55.59;100972.41;5065768;28;20020;-48
2023/08/31 10:20:56;;;;;;;;;;;;;;;20.65;55.99;100980.50;5063542;28;19964;-47
2023/08/31 10:23:21;;;;;;;;;;;;;;;20.65;55.81;100981.34;5065376;28;19913;-47
2023/08/31 10:25:49;;;;;;;;;;;;;;;20.64;56.10;100981.50;5064913;28;19921;-47
2023/08/31 10:28:24;;;;;;;;;;;;;;;20.64;56.09;100971.53;5065365;28;20051;-50
2023/08/31 10:31:08;;;;;;;;;;;;;;;20.63;56.02;100980.66;5064129;28;19920;-48
2023/08/31 10:33:40;;;;;;;;;;;;;;;20.63;56.41;100975.28;5065013;28;19916;-48
2023/08/31 10:36:09;;;;;;;;;;;;;;;20.62;56.28;100962.78;5061817;28;19912;-49
2023/08/31 10:38:34;;;;;;;;;;;;;;;20.63;56.17;100977.13;5065137;28;19917;-50
2023/08/31 10:41:02;;;;;;;;;;;;;;;20.63;56.41;100971.72;5063843;28;20342;-49
2023/08/31 10:43:32;;;;;;;;;;;;;;;20.63;56.32;100969.03;5063317;28;19920;-51
2023/08/31 10:45:58;;;;;;;;;;;;;;;20.63;56.30;100955.53;5063776;28;19924;-48
2023/08/31 10:48:23;;;;;;;;;;;;;;;20.63;56.35;100958.22;5064950;28;19913;-50
2023/08/31 10:50:48;;;;;;;;;;;;;;;20.63;56.26;100959.06;5063441;28;19913;-50
2023/08/31 10:53:13;;;;;;;;;;;;;;;20.63;56.46;100967.16;5064493;28;19934;-49
2023/08/31 10:55:52;;;;;;;;;;;;;;;20.63;56.17;100950.94;5064810;28;19917;-51
2023/08/31 10:58:17;;;;;;;;;;;;;;;20.64;56.18;100954.50;5062524;28;19913;-50
2023/08/31 11:00:46;;;;;;;;;;;;;;;20.65;56.36;100961.59;5062192;28;19928;-47
2023/08/31 11:03:12;;;;;;;;;;;;;;;20.66;55.99;100957.88;5064555;28;19923;-46
2023/08/31 11:05:37;;;;;;;;;;;;;;;20.67;55.80;100954.97;5063720;28;19979;-48
2023/08/31 11:08:02;;;;;;;;;;;;;;;20.69;56.11;100960.22;5079818;28;19913;-47
2023/08/31 11:10:29;;;;;;;;;;;;;;;20.69;55.99;100954.81;5064170;28;19924;-45
2023/08/31 11:12:54;;;;;;;;;;;;;;;20.70;56.01;100953.78;5064261;28;19913;-44
2023/08/31 11:15:20;;;;;;;;;;;;;;;20.70;55.78;100946.53;5063158;28;19919;-46
2023/08/31 11:17:46;;;;;;;;;;;;;;;20.70;55.79;100946.53;5080038;28;19916;-46
2023/08/31 11:20:16;;;;;;;;;;;;;;;20.71;55.68;100941.97;5063733;28;19963;-47
2023/08/31 11:22:41;;;;;;;;;;;;;;;20.72;55.78;100955.28;5063709;28;20005;-47
2023/08/31 11:25:07;;;;;;;;;;;;;;;20.75;55.92;100961.34;5064396;28;19912;-45
2023/08/31 11:27:33;;;;;;;;;;;;;;;20.75;55.54;100966.75;5062896;28;19936;-47
2023/08/31 11:29:58;;;;;;;;;;;;;;;20.77;55.53;100964.72;5064344;28;19924;-45
2023/08/31 11:32:24;;;;;;;;;;;;;;;20.78;55.97;100964.56;5062835;28;19917;-48
2023/08/31 11:34:49;;;;;;;;;;;;;;;20.80;55.73;100956.25;5062433;28;19942;-45
2023/08/31 11:37:19;;;;;;;;;;;;;;;20.81;55.85;100944.41;5064230;28;19913;-48
2023/08/31 11:39:51;;;;;;;;;;;;;;;20.83;55.63;100955.91;5063516;28;19967;-50
2023/08/31 11:42:18;;;;;;;;;;;;;;;20.85;55.74;100941.16;5062591;28;19916;-45
2023/08/31 11:44:43;;;;;;;;;;;;;;;20.87;55.70;100941.84;5062930;28;19927;-49
2023/08/31 11:47:08;;;;;;;;;;;;;;;20.90;55.87;100956.88;5079467;28;20079;-48
2023/08/31 11:49:34;;;;;;;;;;;;;;;20.85;55.72;100946.56;5062454;28;19912;-49
2023/08/31 11:51:59;;;;;;;;;;;;;;;20.93;55.76;100948.38;5079062;28;20428;-47
2023/08/31 11:54:25;;;;;;;;;;;;;;;20.95;55.65;100946.34;5064114;28;20456;-50
2023/08/31 11:56:51;;;;;;;;;;;;;;;20.96;55.61;100946.16;5064081;28;19920;-46
2023/08/31 11:59:16;;;;;;;;;;;;;;;20.98;55.63;100945.97;5063717;28;20031;-50
2023/08/31 12:01:42;;;;;;;;;;;;;;;21.01;55.88;100950.19;5063582;28;19913;-47
2023/08/31 12:04:11;;;;;;;;;;;;;;;21.04;55.92;100952.53;5063555;28;19921;-45
2023/08/31 12:06:36;;;;;;;;;;;;;;;21.05;55.75;100963.16;5062981;28;19927;-49
2023/08/31 12:09:04;;;;;;;;;;;;;;;21.06;55.69;100954.00;5063719;28;20015;-46
2023/08/31 12:11:29;;;;;;;;;;;;;;;21.08;55.76;100962.78;5061385;28;19917;-45
2023/08/31 12:13:54;;;;;;;;;;;;;;;21.09;55.76;100945.53;5063217;28;19917;-45
2023/08/31 12:16:20;;;;;;;;;;;;;;;21.11;55.82;100945.34;5063795;28;19917;-48
2023/08/31 12:18:45;;;;;;;;;;;;;;;21.13;55.71;100951.44;5063405;28;19916;-45
2023/08/31 12:21:11;;;;;;;;;;;;;;;21.15;55.92;100958.34;5062924;28;19935;-45
2023/08/31 12:23:38;;;;;;;;;;;;;;;21.17;55.72;100963.56;5063146;28;20227;-46
2023/08/31 12:26:05;;;;;;;;;;;;;;;21.18;56.04;100968.78;5062996;28;19935;-48
2023/08/31 12:28:30;;;;;;;;;;;;;;;21.21;55.92;100959.47;5063632;28;19912;-45